sensor_id;sensor_type;location;lat;lon;timestamp;P1;durP1;ratioP1;P2;durP2;ratioP2
14096;SDS011;7125;48.106;11.544;2024-03-25T00:00:18;2.23;;;1.47;;
14096;SDS011;7125;48.106;11.544;2024-03-25T00:02:46;1.70;;;1.50;;
14096;SDS011;7125;48.106;11.544;2024-03-25T00:05:12;1.50;;;1.30;;
14096;SDS011;7125;48.106;11.544;2024-03-25T00:07:45;2.60;;;1.33;;
14096;SDS011;7125;48.106;11.544;2024-03-25T00:10:12;2.97;;;1.00;;
14096;SDS011;7125;48.106;11.544;2024-03-25T00:12:38;1.20;;;1.00;;
14096;SDS011;7125;48.106;11.544;2024-03-25T00:15:06;2.30;;;1.13;;
14096;SDS011;7125;48.106;11.544;2024-03-25T00:17:33;1.03;;;1.03;;
14096;SDS011;7125;48.106;11.544;2024-03-25T00:20:01;2.53;;;0.77;;
14096;SDS011;7125;48.106;11.544;2024-03-25T00:22:31;1.20;;;0.80;;
14096;SDS011;7125;48.106;11.544;2024-03-25T00:25:00;1.67;;;1.10;;
14096;SDS011;7125;48.106;11.544;2024-03-25T00:27:26;3.77;;;0.97;;
14096;SDS011;7125;48.106;11.544;2024-03-25T00:29:54;3.20;;;1.20;;
14096;SDS011;7125;48.106;11.544;2024-03-25T00:32:21;0.90;;;0.67;;
14096;SDS011;7125;48.106;11.544;2024-03-25T00:34:48;1.97;;;1.20;;
14096;SDS011;7125;48.106;11.544;2024-03-25T00:37:14;1.47;;;0.90;;
14096;SDS011;7125;48.106;11.544;2024-03-25T00:39:42;4.37;;;1.17;;
14096;SDS011;7125;48.106;11.544;2024-03-25T00:42:09;1.97;;;0.60;;
14096;SDS011;7125;48.106;11.544;2024-03-25T00:44:39;2.13;;;1.13;;
14096;SDS011;7125;48.106;11.544;2024-03-25T00:47:05;1.33;;;1.23;;
14096;SDS011;7125;48.106;11.544;2024-03-25T00:49:32;1.23;;;0.93;;
14096;SDS011;7125;48.106;11.544;2024-03-25T00:51:59;3.13;;;1.03;;
14096;SDS011;7125;48.106;11.544;2024-03-25T00:54:27;4.97;;;1.50;;
14096;SDS011;7125;48.106;11.544;2024-03-25T00:56:54;1.00;;;0.90;;
14096;SDS011;7125;48.106;11.544;2024-03-25T00:59:23;3.00;;;1.40;;
14096;SDS011;7125;48.106;11.544;2024-03-25T01:01:49;1.20;;;1.10;;
14096;SDS011;7125;48.106;11.544;2024-03-25T01:04:18;1.43;;;0.47;;
14096;SDS011;7125;48.106;11.544;2024-03-25T01:06:44;4.83;;;1.40;;
14096;SDS011;7125;48.106;11.544;2024-03-25T01:09:14;1.43;;;0.70;;
14096;SDS011;7125;48.106;11.544;2024-03-25T01:11:41;1.67;;;1.20;;
14096;SDS011;7125;48.106;11.544;2024-03-25T01:14:08;1.20;;;1.10;;
14096;SDS011;7125;48.106;11.544;2024-03-25T01:16:36;2.57;;;1.07;;
14096;SDS011;7125;48.106;11.544;2024-03-25T01:19:03;1.53;;;1.10;;
14096;SDS011;7125;48.106;11.544;2024-03-25T01:21:30;1.43;;;1.27;;
14096;SDS011;7125;48.106;11.544;2024-03-25T01:23:57;4.03;;;1.40;;
14096;SDS011;7125;48.106;11.544;2024-03-25T01:26:23;1.73;;;1.03;;
14096;SDS011;7125;48.106;11.544;2024-03-25T01:28:51;1.03;;;0.93;;
14096;SDS011;7125;48.106;11.544;2024-03-25T01:31:17;1.57;;;0.70;;
14096;SDS011;7125;48.106;11.544;2024-03-25T01:33:46;2.37;;;1.10;;
14096;SDS011;7125;48.106;11.544;2024-03-25T01:36:12;2.97;;;0.83;;
14096;SDS011;7125;48.106;11.544;2024-03-25T01:38:42;1.53;;;0.90;;
14096;SDS011;7125;48.106;11.544;2024-03-25T01:41:09;3.80;;;0.97;;
14096;SDS011;7125;48.106;11.544;2024-03-25T01:43:37;3.03;;;0.90;;
14096;SDS011;7125;48.106;11.544;2024-03-25T01:46:04;1.63;;;1.10;;
14096;SDS011;7125;48.106;11.544;2024-03-25T01:48:32;1.07;;;0.83;;
14096;SDS011;7125;48.106;11.544;2024-03-25T01:51:01;0.70;;;0.70;;
14096;SDS011;7125;48.106;11.544;2024-03-25T01:53:29;0.90;;;0.67;;
14096;SDS011;7125;48.106;11.544;2024-03-25T01:55:56;2.27;;;1.20;;
14096;SDS011;7125;48.106;11.544;2024-03-25T01:58:25;2.10;;;1.90;;
14096;SDS011;7125;48.106;11.544;2024-03-25T02:00:52;0.90;;;0.90;;
14096;SDS011;7125;48.106;11.544;2024-03-25T02:03:22;0.87;;;0.77;;
14096;SDS011;7125;48.106;11.544;2024-03-25T02:05:49;2.43;;;1.33;;
14096;SDS011;7125;48.106;11.544;2024-03-25T02:08:21;1.77;;;0.70;;
14096;SDS011;7125;48.106;11.544;2024-03-25T02:10:48;2.20;;;0.80;;
14096;SDS011;7125;48.106;11.544;2024-03-25T02:13:16;1.10;;;1.00;;
14096;SDS011;7125;48.106;11.544;2024-03-25T02:15:42;2.73;;;0.90;;
14096;SDS011;7125;48.106;11.544;2024-03-25T02:18:10;1.43;;;0.93;;
14096;SDS011;7125;48.106;11.544;2024-03-25T02:20:36;1.37;;;0.67;;
14096;SDS011;7125;48.106;11.544;2024-03-25T02:23:04;0.93;;;0.90;;
14096;SDS011;7125;48.106;11.544;2024-03-25T02:25:33;0.60;;;0.60;;
14096;SDS011;7125;48.106;11.544;2024-03-25T02:28:02;1.40;;;0.97;;
14096;SDS011;7125;48.106;11.544;2024-03-25T02:30:29;0.73;;;0.50;;
14096;SDS011;7125;48.106;11.544;2024-03-25T02:32:56;2.50;;;1.40;;
14096;SDS011;7125;48.106;11.544;2024-03-25T02:35:22;1.63;;;0.83;;
14096;SDS011;7125;48.106;11.544;2024-03-25T02:37:52;1.47;;;1.03;;
14096;SDS011;7125;48.106;11.544;2024-03-25T02:40:19;2.97;;;1.83;;
14096;SDS011;7125;48.106;11.544;2024-03-25T02:42:48;0.63;;;0.63;;
14096;SDS011;7125;48.106;11.544;2024-03-25T02:45:16;4.93;;;1.27;;
14096;SDS011;7125;48.106;11.544;2024-03-25T02:47:47;0.90;;;0.87;;
14096;SDS011;7125;48.106;11.544;2024-03-25T02:50:13;1.20;;;1.10;;
14096;SDS011;7125;48.106;11.544;2024-03-25T02:52:40;2.80;;;1.00;;
14096;SDS011;7125;48.106;11.544;2024-03-25T02:55:07;1.70;;;1.10;;
14096;SDS011;7125;48.106;11.544;2024-03-25T02:57:34;3.27;;;1.07;;
14096;SDS011;7125;48.106;11.544;2024-03-25T03:00:01;1.10;;;1.00;;
14096;SDS011;7125;48.106;11.544;2024-03-25T03:02:31;1.53;;;0.90;;
14096;SDS011;7125;48.106;11.544;2024-03-25T03:04:58;2.47;;;1.00;;
14096;SDS011;7125;48.106;11.544;2024-03-25T03:07:26;6.07;;;2.53;;
14096;SDS011;7125;48.106;11.544;2024-03-25T03:09:52;1.63;;;1.30;;
14096;SDS011;7125;48.106;11.544;2024-03-25T03:12:20;4.00;;;1.20;;
14096;SDS011;7125;48.106;11.544;2024-03-25T03:14:46;4.20;;;1.30;;
14096;SDS011;7125;48.106;11.544;2024-03-25T03:17:13;2.27;;;1.10;;
14096;SDS011;7125;48.106;11.544;2024-03-25T03:19:43;1.57;;;1.10;;
14096;SDS011;7125;48.106;11.544;2024-03-25T03:22:13;1.57;;;1.47;;
14096;SDS011;7125;48.106;11.544;2024-03-25T03:24:39;1.20;;;0.93;;
14096;SDS011;7125;48.106;11.544;2024-03-25T03:27:07;3.17;;;1.00;;
14096;SDS011;7125;48.106;11.544;2024-03-25T03:29:33;1.77;;;1.00;;
14096;SDS011;7125;48.106;11.544;2024-03-25T03:32:00;2.13;;;1.43;;
14096;SDS011;7125;48.106;11.544;2024-03-25T03:34:27;3.07;;;1.40;;
14096;SDS011;7125;48.106;11.544;2024-03-25T03:36:59;3.50;;;1.20;;
14096;SDS011;7125;48.106;11.544;2024-03-25T03:39:25;1.70;;;1.60;;
14096;SDS011;7125;48.106;11.544;2024-03-25T03:41:54;1.77;;;1.20;;
14096;SDS011;7125;48.106;11.544;2024-03-25T03:44:21;2.37;;;1.00;;
14096;SDS011;7125;48.106;11.544;2024-03-25T03:46:48;5.30;;;1.33;;
14096;SDS011;7125;48.106;11.544;2024-03-25T03:49:14;1.67;;;1.20;;
14096;SDS011;7125;48.106;11.544;2024-03-25T03:51:45;4.27;;;1.30;;
14096;SDS011;7125;48.106;11.544;2024-03-25T03:54:13;2.63;;;1.33;;
14096;SDS011;7125;48.106;11.544;2024-03-25T03:56:40;1.50;;;1.40;;
14096;SDS011;7125;48.106;11.544;2024-03-25T03:59:06;2.50;;;1.13;;
14096;SDS011;7125;48.106;11.544;2024-03-25T04:01:34;3.07;;;1.30;;
14096;SDS011;7125;48.106;11.544;2024-03-25T04:04:00;3.10;;;1.90;;
14096;SDS011;7125;48.106;11.544;2024-03-25T04:06:29;4.40;;;1.30;;
14096;SDS011;7125;48.106;11.544;2024-03-25T04:08:55;2.10;;;1.37;;
14096;SDS011;7125;48.106;11.544;2024-03-25T04:11:24;1.10;;;0.90;;
14096;SDS011;7125;48.106;11.544;2024-03-25T04:13:50;1.23;;;1.13;;
14096;SDS011;7125;48.106;11.544;2024-03-25T04:16:18;1.13;;;1.03;;
14096;SDS011;7125;48.106;11.544;2024-03-25T04:18:44;1.10;;;1.00;;
14096;SDS011;7125;48.106;11.544;2024-03-25T04:21:15;1.47;;;1.00;;
14096;SDS011;7125;48.106;11.544;2024-03-25T04:23:41;2.57;;;1.33;;
14096;SDS011;7125;48.106;11.544;2024-03-25T04:26:10;1.63;;;1.17;;
14096;SDS011;7125;48.106;11.544;2024-03-25T04:28:37;1.47;;;1.20;;
14096;SDS011;7125;48.106;11.544;2024-03-25T04:31:07;3.23;;;1.20;;
14096;SDS011;7125;48.106;11.544;2024-03-25T04:33:33;4.03;;;1.30;;
14096;SDS011;7125;48.106;11.544;2024-03-25T04:36:01;1.90;;;1.80;;
14096;SDS011;7125;48.106;11.544;2024-03-25T04:38:29;1.77;;;1.27;;
14096;SDS011;7125;48.106;11.544;2024-03-25T04:40:56;1.30;;;1.00;;
14096;SDS011;7125;48.106;11.544;2024-03-25T04:43:23;1.20;;;1.03;;
14096;SDS011;7125;48.106;11.544;2024-03-25T04:45:51;1.57;;;1.17;;
14096;SDS011;7125;48.106;11.544;2024-03-25T04:48:17;2.10;;;1.20;;
14096;SDS011;7125;48.106;11.544;2024-03-25T04:50:45;10.60;;;3.57;;
14096;SDS011;7125;48.106;11.544;2024-03-25T04:53:13;1.70;;;0.97;;
14096;SDS011;7125;48.106;11.544;2024-03-25T04:55:40;2.07;;;1.07;;
14096;SDS011;7125;48.106;11.544;2024-03-25T04:58:06;2.60;;;1.40;;
14096;SDS011;7125;48.106;11.544;2024-03-25T05:00:33;3.07;;;1.30;;
14096;SDS011;7125;48.106;11.544;2024-03-25T05:03:00;1.10;;;1.00;;
14096;SDS011;7125;48.106;11.544;2024-03-25T05:05:27;2.10;;;1.10;;
14096;SDS011;7125;48.106;11.544;2024-03-25T05:07:53;1.63;;;1.17;;
14096;SDS011;7125;48.106;11.544;2024-03-25T05:10:19;1.43;;;1.20;;
14096;SDS011;7125;48.106;11.544;2024-03-25T05:12:46;1.97;;;1.20;;
14096;SDS011;7125;48.106;11.544;2024-03-25T05:15:13;1.80;;;1.20;;
14096;SDS011;7125;48.106;11.544;2024-03-25T05:17:39;2.63;;;1.47;;
14096;SDS011;7125;48.106;11.544;2024-03-25T05:20:08;2.37;;;1.27;;
14096;SDS011;7125;48.106;11.544;2024-03-25T05:22:37;2.07;;;1.03;;
14096;SDS011;7125;48.106;11.544;2024-03-25T05:25:04;7.33;;;1.60;;
14096;SDS011;7125;48.106;11.544;2024-03-25T05:27:30;2.80;;;1.60;;
14096;SDS011;7125;48.106;11.544;2024-03-25T05:29:56;1.23;;;1.03;;
14096;SDS011;7125;48.106;11.544;2024-03-25T05:32:23;1.37;;;1.27;;
14096;SDS011;7125;48.106;11.544;2024-03-25T05:34:50;1.97;;;1.07;;
14096;SDS011;7125;48.106;11.544;2024-03-25T05:37:18;3.73;;;1.40;;
14096;SDS011;7125;48.106;11.544;2024-03-25T05:39:44;4.63;;;1.40;;
14096;SDS011;7125;48.106;11.544;2024-03-25T05:42:11;1.73;;;1.30;;
14096;SDS011;7125;48.106;11.544;2024-03-25T05:44:39;2.00;;;1.80;;
14096;SDS011;7125;48.106;11.544;2024-03-25T05:47:05;5.03;;;1.57;;
14096;SDS011;7125;48.106;11.544;2024-03-25T05:49:33;1.73;;;1.60;;
14096;SDS011;7125;48.106;11.544;2024-03-25T05:52:00;4.97;;;1.47;;
14096;SDS011;7125;48.106;11.544;2024-03-25T05:54:27;1.43;;;1.33;;
14096;SDS011;7125;48.106;11.544;2024-03-25T05:56:54;2.93;;;1.33;;
14096;SDS011;7125;48.106;11.544;2024-03-25T05:59:20;2.13;;;1.30;;
14096;SDS011;7125;48.106;11.544;2024-03-25T06:01:47;2.53;;;1.57;;
14096;SDS011;7125;48.106;11.544;2024-03-25T06:04:13;2.43;;;1.73;;
14096;SDS011;7125;48.106;11.544;2024-03-25T06:06:40;2.97;;;1.23;;
14096;SDS011;7125;48.106;11.544;2024-03-25T06:09:06;2.43;;;1.50;;
14096;SDS011;7125;48.106;11.544;2024-03-25T06:11:34;1.97;;;1.70;;
14096;SDS011;7125;48.106;11.544;2024-03-25T06:14:00;1.67;;;1.53;;
14096;SDS011;7125;48.106;11.544;2024-03-25T06:16:27;2.87;;;2.13;;
14096;SDS011;7125;48.106;11.544;2024-03-25T06:18:53;2.30;;;1.70;;
14096;SDS011;7125;48.106;11.544;2024-03-25T06:21:19;2.40;;;1.83;;
14096;SDS011;7125;48.106;11.544;2024-03-25T06:23:46;8.30;;;2.83;;
14096;SDS011;7125;48.106;11.544;2024-03-25T06:26:12;9.60;;;4.37;;
14096;SDS011;7125;48.106;11.544;2024-03-25T06:28:43;9.37;;;4.60;;
14096;SDS011;7125;48.106;11.544;2024-03-25T06:31:09;3.53;;;2.83;;
14096;SDS011;7125;48.106;11.544;2024-03-25T06:33:55;5.03;;;2.60;;
14096;SDS011;7125;48.106;11.544;2024-03-25T06:36:39;4.53;;;1.17;;
14096;SDS011;7125;48.106;11.544;2024-03-25T06:39:06;2.90;;;2.60;;
14096;SDS011;7125;48.106;11.544;2024-03-25T06:41:32;3.70;;;1.67;;
14096;SDS011;7125;48.106;11.544;2024-03-25T06:44:00;4.50;;;1.50;;
14096;SDS011;7125;48.106;11.544;2024-03-25T06:46:27;1.97;;;1.47;;
14096;SDS011;7125;48.106;11.544;2024-03-25T06:48:54;2.13;;;1.60;;
14096;SDS011;7125;48.106;11.544;2024-03-25T06:51:20;2.13;;;1.90;;
14096;SDS011;7125;48.106;11.544;2024-03-25T06:53:46;3.57;;;1.63;;
14096;SDS011;7125;48.106;11.544;2024-03-25T06:56:14;2.83;;;1.50;;
14096;SDS011;7125;48.106;11.544;2024-03-25T06:58:41;1.90;;;1.60;;
14096;SDS011;7125;48.106;11.544;2024-03-25T07:01:09;4.67;;;1.60;;
14096;SDS011;7125;48.106;11.544;2024-03-25T07:03:36;1.20;;;1.10;;
14096;SDS011;7125;48.106;11.544;2024-03-25T07:06:02;2.23;;;1.30;;
14096;SDS011;7125;48.106;11.544;2024-03-25T07:08:30;5.13;;;1.37;;
14096;SDS011;7125;48.106;11.544;2024-03-25T07:10:56;2.57;;;1.10;;
14096;SDS011;7125;48.106;11.544;2024-03-25T07:13:23;1.40;;;1.30;;
14096;SDS011;7125;48.106;11.544;2024-03-25T07:15:51;1.87;;;1.53;;
14096;SDS011;7125;48.106;11.544;2024-03-25T07:18:18;1.37;;;1.03;;
14096;SDS011;7125;48.106;11.544;2024-03-25T07:20:45;3.33;;;1.23;;
14096;SDS011;7125;48.106;11.544;2024-03-25T07:23:12;1.53;;;1.00;;
14096;SDS011;7125;48.106;11.544;2024-03-25T07:25:39;2.83;;;1.37;;
14096;SDS011;7125;48.106;11.544;2024-03-25T07:28:05;1.37;;;1.27;;
14096;SDS011;7125;48.106;11.544;2024-03-25T07:30:33;2.20;;;1.60;;
14096;SDS011;7125;48.106;11.544;2024-03-25T07:33:00;1.90;;;1.10;;
14096;SDS011;7125;48.106;11.544;2024-03-25T07:35:29;1.70;;;1.27;;
14096;SDS011;7125;48.106;11.544;2024-03-25T07:37:55;1.63;;;1.20;;
14096;SDS011;7125;48.106;11.544;2024-03-25T07:40:22;2.37;;;1.20;;
14096;SDS011;7125;48.106;11.544;2024-03-25T07:42:50;2.50;;;1.30;;
14096;SDS011;7125;48.106;11.544;2024-03-25T07:45:16;2.10;;;1.23;;
14096;SDS011;7125;48.106;11.544;2024-03-25T07:47:42;5.93;;;1.60;;
14096;SDS011;7125;48.106;11.544;2024-03-25T07:50:10;3.90;;;1.50;;
14096;SDS011;7125;48.106;11.544;2024-03-25T07:52:38;1.70;;;1.23;;
14096;SDS011;7125;48.106;11.544;2024-03-25T07:55:05;4.63;;;2.13;;
14096;SDS011;7125;48.106;11.544;2024-03-25T07:57:33;4.83;;;1.57;;
14096;SDS011;7125;48.106;11.544;2024-03-25T08:00:00;2.20;;;1.23;;
14096;SDS011;7125;48.106;11.544;2024-03-25T08:02:26;1.83;;;1.03;;
14096;SDS011;7125;48.106;11.544;2024-03-25T08:04:54;1.20;;;1.10;;
14096;SDS011;7125;48.106;11.544;2024-03-25T08:07:22;1.17;;;0.93;;
14096;SDS011;7125;48.106;11.544;2024-03-25T08:09:50;3.60;;;1.37;;
14096;SDS011;7125;48.106;11.544;2024-03-25T08:12:17;3.07;;;0.93;;
14096;SDS011;7125;48.106;11.544;2024-03-25T08:14:44;2.37;;;1.23;;
14096;SDS011;7125;48.106;11.544;2024-03-25T08:17:10;3.90;;;1.60;;
14096;SDS011;7125;48.106;11.544;2024-03-25T08:19:37;2.00;;;1.27;;
14096;SDS011;7125;48.106;11.544;2024-03-25T08:22:03;1.83;;;1.50;;
14096;SDS011;7125;48.106;11.544;2024-03-25T08:24:31;1.33;;;1.00;;
14096;SDS011;7125;48.106;11.544;2024-03-25T08:27:02;4.67;;;1.73;;
14096;SDS011;7125;48.106;11.544;2024-03-25T08:29:28;3.57;;;1.30;;
14096;SDS011;7125;48.106;11.544;2024-03-25T08:31:55;1.43;;;1.33;;
14096;SDS011;7125;48.106;11.544;2024-03-25T08:34:21;4.00;;;1.20;;
14096;SDS011;7125;48.106;11.544;2024-03-25T08:36:47;5.03;;;1.10;;
14096;SDS011;7125;48.106;11.544;2024-03-25T08:39:13;3.23;;;1.10;;
14096;SDS011;7125;48.106;11.544;2024-03-25T08:41:41;5.77;;;1.50;;
14096;SDS011;7125;48.106;11.544;2024-03-25T08:44:09;5.27;;;1.27;;
14096;SDS011;7125;48.106;11.544;2024-03-25T08:46:35;3.40;;;1.10;;
14096;SDS011;7125;48.106;11.544;2024-03-25T08:49:01;0.97;;;0.93;;
14096;SDS011;7125;48.106;11.544;2024-03-25T08:51:27;4.57;;;1.17;;
14096;SDS011;7125;48.106;11.544;2024-03-25T08:53:54;2.93;;;1.27;;
14096;SDS011;7125;48.106;11.544;2024-03-25T08:56:20;1.67;;;1.03;;
14096;SDS011;7125;48.106;11.544;2024-03-25T08:58:47;3.33;;;0.80;;
14096;SDS011;7125;48.106;11.544;2024-03-25T09:01:14;0.97;;;0.87;;
14096;SDS011;7125;48.106;11.544;2024-03-25T09:03:41;2.10;;;0.97;;
14096;SDS011;7125;48.106;11.544;2024-03-25T09:06:07;2.23;;;1.23;;
14096;SDS011;7125;48.106;11.544;2024-03-25T09:08:34;1.03;;;0.90;;
14096;SDS011;7125;48.106;11.544;2024-03-25T09:11:00;2.63;;;0.97;;
14096;SDS011;7125;48.106;11.544;2024-03-25T09:13:32;1.27;;;0.80;;
14096;SDS011;7125;48.106;11.544;2024-03-25T09:15:59;2.67;;;1.77;;
14096;SDS011;7125;48.106;11.544;2024-03-25T09:18:27;1.33;;;1.00;;
14096;SDS011;7125;48.106;11.544;2024-03-25T09:20:54;4.13;;;1.00;;
14096;SDS011;7125;48.106;11.544;2024-03-25T09:23:23;2.33;;;0.83;;
14096;SDS011;7125;48.106;11.544;2024-03-25T09:25:53;4.77;;;1.57;;
14096;SDS011;7125;48.106;11.544;2024-03-25T09:28:21;4.70;;;1.23;;
14096;SDS011;7125;48.106;11.544;2024-03-25T09:30:48;3.10;;;1.20;;
14096;SDS011;7125;48.106;11.544;2024-03-25T09:33:15;6.17;;;0.90;;
14096;SDS011;7125;48.106;11.544;2024-03-25T09:35:45;0.77;;;0.70;;
14096;SDS011;7125;48.106;11.544;2024-03-25T09:38:13;1.50;;;0.73;;
14096;SDS011;7125;48.106;11.544;2024-03-25T09:40:40;1.37;;;0.97;;
14096;SDS011;7125;48.106;11.544;2024-03-25T09:43:09;3.13;;;1.10;;
14096;SDS011;7125;48.106;11.544;2024-03-25T09:45:39;1.07;;;0.93;;
14096;SDS011;7125;48.106;11.544;2024-03-25T09:48:09;2.20;;;0.80;;
14096;SDS011;7125;48.106;11.544;2024-03-25T09:50:37;0.70;;;0.57;;
14096;SDS011;7125;48.106;11.544;2024-03-25T09:53:07;3.53;;;1.00;;
14096;SDS011;7125;48.106;11.544;2024-03-25T09:55:34;1.37;;;1.13;;
14096;SDS011;7125;48.106;11.544;2024-03-25T09:58:00;4.03;;;1.00;;
14096;SDS011;7125;48.106;11.544;2024-03-25T10:00:28;3.07;;;1.17;;
14096;SDS011;7125;48.106;11.544;2024-03-25T10:02:56;2.70;;;0.70;;
14096;SDS011;7125;48.106;11.544;2024-03-25T10:05:23;2.40;;;0.90;;
14096;SDS011;7125;48.106;11.544;2024-03-25T10:07:50;0.80;;;0.80;;
14096;SDS011;7125;48.106;11.544;2024-03-25T10:10:34;0.53;;;0.50;;
14096;SDS011;7125;48.106;11.544;2024-03-25T10:13:08;1.50;;;0.90;;
14096;SDS011;7125;48.106;11.544;2024-03-25T10:15:39;2.20;;;1.07;;
14096;SDS011;7125;48.106;11.544;2024-03-25T10:18:13;0.80;;;0.77;;
14096;SDS011;7125;48.106;11.544;2024-03-25T10:20:47;1.50;;;0.87;;
14096;SDS011;7125;48.106;11.544;2024-03-25T10:23:14;2.00;;;1.17;;
14096;SDS011;7125;48.106;11.544;2024-03-25T10:25:44;1.57;;;1.07;;
14096;SDS011;7125;48.106;11.544;2024-03-25T10:28:15;1.10;;;0.67;;
14096;SDS011;7125;48.106;11.544;2024-03-25T10:30:42;3.30;;;1.00;;
14096;SDS011;7125;48.106;11.544;2024-03-25T10:33:09;0.73;;;0.47;;
14096;SDS011;7125;48.106;11.544;2024-03-25T10:35:38;1.53;;;1.00;;
14096;SDS011;7125;48.106;11.544;2024-03-25T10:38:10;1.33;;;0.80;;
14096;SDS011;7125;48.106;11.544;2024-03-25T10:40:45;2.23;;;0.90;;
14096;SDS011;7125;48.106;11.544;2024-03-25T10:43:14;1.60;;;0.60;;
14096;SDS011;7125;48.106;11.544;2024-03-25T10:45:42;5.13;;;1.27;;
14096;SDS011;7125;48.106;11.544;2024-03-25T10:48:12;1.27;;;0.80;;
14096;SDS011;7125;48.106;11.544;2024-03-25T10:50:45;1.00;;;0.70;;
14096;SDS011;7125;48.106;11.544;2024-03-25T10:53:22;0.87;;;0.70;;
14096;SDS011;7125;48.106;11.544;2024-03-25T10:55:56;0.60;;;0.50;;
14096;SDS011;7125;48.106;11.544;2024-03-25T10:58:22;0.67;;;0.63;;
14096;SDS011;7125;48.106;11.544;2024-03-25T11:00:50;3.40;;;0.90;;
14096;SDS011;7125;48.106;11.544;2024-03-25T11:03:18;1.37;;;0.60;;
14096;SDS011;7125;48.106;11.544;2024-03-25T11:08:30;0.90;;;0.70;;
14096;SDS011;7125;48.106;11.544;2024-03-25T11:11:22;1.57;;;0.60;;
14096;SDS011;7125;48.106;11.544;2024-03-25T11:13:50;3.20;;;1.20;;
14096;SDS011;7125;48.106;11.544;2024-03-25T11:16:25;1.87;;;0.47;;
14096;SDS011;7125;48.106;11.544;2024-03-25T11:19:00;2.37;;;0.60;;
14096;SDS011;7125;48.106;11.544;2024-03-25T11:21:29;1.73;;;0.70;;
14096;SDS011;7125;48.106;11.544;2024-03-25T11:24:05;0.90;;;0.50;;
14096;SDS011;7125;48.106;11.544;2024-03-25T11:26:34;3.13;;;0.70;;
14096;SDS011;7125;48.106;11.544;2024-03-25T11:29:05;1.23;;;0.70;;
14096;SDS011;7125;48.106;11.544;2024-03-25T11:31:32;0.90;;;0.60;;
14096;SDS011;7125;48.106;11.544;2024-03-25T11:34:02;0.83;;;0.70;;
14096;SDS011;7125;48.106;11.544;2024-03-25T11:36:30;1.00;;;0.77;;
14096;SDS011;7125;48.106;11.544;2024-03-25T11:38:57;0.83;;;0.83;;
14096;SDS011;7125;48.106;11.544;2024-03-25T11:41:25;2.53;;;0.63;;
14096;SDS011;7125;48.106;11.544;2024-03-25T11:43:54;1.90;;;0.57;;
14096;SDS011;7125;48.106;11.544;2024-03-25T11:46:24;1.03;;;0.60;;
14096;SDS011;7125;48.106;11.544;2024-03-25T11:48:51;0.97;;;0.50;;
14096;SDS011;7125;48.106;11.544;2024-03-25T11:51:19;2.83;;;0.87;;
14096;SDS011;7125;48.106;11.544;2024-03-25T11:53:46;1.07;;;0.50;;
14096;SDS011;7125;48.106;11.544;2024-03-25T11:56:12;0.73;;;0.50;;
14096;SDS011;7125;48.106;11.544;2024-03-25T11:58:39;1.57;;;0.77;;
14096;SDS011;7125;48.106;11.544;2024-03-25T12:01:07;3.23;;;0.90;;
14096;SDS011;7125;48.106;11.544;2024-03-25T12:03:34;0.23;;;0.23;;
14096;SDS011;7125;48.106;11.544;2024-03-25T12:06:00;1.57;;;0.80;;
14096;SDS011;7125;48.106;11.544;2024-03-25T12:08:27;2.83;;;0.80;;
14096;SDS011;7125;48.106;11.544;2024-03-25T12:10:53;0.53;;;0.50;;
14096;SDS011;7125;48.106;11.544;2024-03-25T12:13:38;0.83;;;0.73;;
14096;SDS011;7125;48.106;11.544;2024-03-25T12:16:06;0.93;;;0.60;;
14096;SDS011;7125;48.106;11.544;2024-03-25T12:18:33;1.43;;;1.33;;
14096;SDS011;7125;48.106;11.544;2024-03-25T12:21:00;0.70;;;0.60;;
14096;SDS011;7125;48.106;11.544;2024-03-25T12:23:30;3.27;;;0.57;;
14096;SDS011;7125;48.106;11.544;2024-03-25T12:25:58;4.50;;;0.53;;
14096;SDS011;7125;48.106;11.544;2024-03-25T12:28:25;2.30;;;0.50;;
14096;SDS011;7125;48.106;11.544;2024-03-25T12:30:52;1.37;;;0.70;;
14096;SDS011;7125;48.106;11.544;2024-03-25T12:33:21;1.03;;;0.40;;
14096;SDS011;7125;48.106;11.544;2024-03-25T12:35:48;1.47;;;0.60;;
14096;SDS011;7125;48.106;11.544;2024-03-25T12:38:22;0.57;;;0.53;;
14096;SDS011;7125;48.106;11.544;2024-03-25T12:40:49;1.70;;;0.90;;
14096;SDS011;7125;48.106;11.544;2024-03-25T12:43:17;2.00;;;0.70;;
14096;SDS011;7125;48.106;11.544;2024-03-25T12:45:43;1.07;;;0.50;;
14096;SDS011;7125;48.106;11.544;2024-03-25T12:48:10;0.73;;;0.30;;
14096;SDS011;7125;48.106;11.544;2024-03-25T12:50:38;0.57;;;0.40;;
14096;SDS011;7125;48.106;11.544;2024-03-25T12:53:05;1.33;;;0.70;;
14096;SDS011;7125;48.106;11.544;2024-03-25T12:55:31;1.27;;;0.60;;
14096;SDS011;7125;48.106;11.544;2024-03-25T12:57:57;0.57;;;0.40;;
14096;SDS011;7125;48.106;11.544;2024-03-25T13:00:24;3.33;;;0.50;;
14096;SDS011;7125;48.106;11.544;2024-03-25T13:02:50;2.37;;;1.20;;
14096;SDS011;7125;48.106;11.544;2024-03-25T13:05:17;0.53;;;0.37;;
14096;SDS011;7125;48.106;11.544;2024-03-25T13:07:46;2.40;;;0.90;;
14096;SDS011;7125;48.106;11.544;2024-03-25T13:10:13;0.70;;;0.60;;
14096;SDS011;7125;48.106;11.544;2024-03-25T13:12:39;0.70;;;0.57;;
14096;SDS011;7125;48.106;11.544;2024-03-25T13:15:07;0.93;;;0.43;;
14096;SDS011;7125;48.106;11.544;2024-03-25T13:17:34;0.57;;;0.47;;
14096;SDS011;7125;48.106;11.544;2024-03-25T13:20:00;1.30;;;0.50;;
14096;SDS011;7125;48.106;11.544;2024-03-25T13:22:26;1.97;;;0.40;;
14096;SDS011;7125;48.106;11.544;2024-03-25T13:24:54;3.13;;;0.50;;
14096;SDS011;7125;48.106;11.544;2024-03-25T13:27:20;0.83;;;0.73;;
14096;SDS011;7125;48.106;11.544;2024-03-25T13:29:47;0.97;;;0.33;;
14096;SDS011;7125;48.106;11.544;2024-03-25T13:32:13;1.23;;;0.50;;
14096;SDS011;7125;48.106;11.544;2024-03-25T13:34:40;0.50;;;0.37;;
14096;SDS011;7125;48.106;11.544;2024-03-25T13:37:07;1.47;;;0.70;;
14096;SDS011;7125;48.106;11.544;2024-03-25T13:39:54;0.43;;;0.40;;
14096;SDS011;7125;48.106;11.544;2024-03-25T13:42:21;0.73;;;0.70;;
14096;SDS011;7125;48.106;11.544;2024-03-25T13:44:54;1.37;;;0.60;;
14096;SDS011;7125;48.106;11.544;2024-03-25T13:47:21;1.13;;;0.30;;
14096;SDS011;7125;48.106;11.544;2024-03-25T13:49:47;1.10;;;0.60;;
14096;SDS011;7125;48.106;11.544;2024-03-25T13:52:17;0.83;;;0.63;;
14096;SDS011;7125;48.106;11.544;2024-03-25T13:54:49;2.20;;;0.87;;
14096;SDS011;7125;48.106;11.544;2024-03-25T14:00:24;2.80;;;0.38;;
14096;SDS011;7125;48.106;11.544;2024-03-25T14:02:50;1.83;;;0.50;;
14096;SDS011;7125;48.106;11.544;2024-03-25T14:05:17;1.83;;;0.50;;
14096;SDS011;7125;48.106;11.544;2024-03-25T14:07:46;1.87;;;0.57;;
14096;SDS011;7125;48.106;11.544;2024-03-25T14:10:13;0.50;;;0.30;;
14096;SDS011;7125;48.106;11.544;2024-03-25T14:12:40;1.07;;;0.27;;
14096;SDS011;7125;48.106;11.544;2024-03-25T14:15:07;0.73;;;0.53;;
14096;SDS011;7125;48.106;11.544;2024-03-25T14:17:37;0.80;;;0.40;;
14096;SDS011;7125;48.106;11.544;2024-03-25T14:20:07;0.97;;;0.80;;
14096;SDS011;7125;48.106;11.544;2024-03-25T14:22:42;2.57;;;0.60;;
14096;SDS011;7125;48.106;11.544;2024-03-25T14:25:10;0.60;;;0.50;;
14096;SDS011;7125;48.106;11.544;2024-03-25T14:27:40;1.60;;;1.50;;
14096;SDS011;7125;48.106;11.544;2024-03-25T14:30:07;2.17;;;0.53;;
14096;SDS011;7125;48.106;11.544;2024-03-25T14:32:34;0.47;;;0.30;;
14096;SDS011;7125;48.106;11.544;2024-03-25T14:35:03;0.27;;;0.27;;
14096;SDS011;7125;48.106;11.544;2024-03-25T14:37:29;2.27;;;0.77;;
14096;SDS011;7125;48.106;11.544;2024-03-25T14:39:56;1.17;;;0.30;;
14096;SDS011;7125;48.106;11.544;2024-03-25T14:42:22;0.55;;;0.50;;
14096;SDS011;7125;48.106;11.544;2024-03-25T14:44:52;0.93;;;0.67;;
14096;SDS011;7125;48.106;11.544;2024-03-25T14:47:18;2.35;;;1.20;;
14096;SDS011;7125;48.106;11.544;2024-03-25T14:49:45;1.25;;;1.05;;
14096;SDS011;7125;48.106;11.544;2024-03-25T14:52:12;1.70;;;0.82;;
14096;SDS011;7125;48.106;11.544;2024-03-25T14:54:39;1.80;;;0.77;;
14096;SDS011;7125;48.106;11.544;2024-03-25T14:57:05;1.80;;;1.05;;